Portada
METAR-TAF:

METAR-TAF

Aeropuertos :

Mécheria, Argelia

latitud: 34-56N, longitud: 000-26W, altitud: 1149 m

Observación

El informe se hizo hace 1 hora y 31 minutos, a las 21:00 UTC
Viento 8 kt del sur
Temperatura 20°C
Humedad 40%
Presión 1023 hPa
Visibilidad 10 km o más
Nubes dispersas a una altura de 3000 ft

METAR: DAAY 162100Z 19008KT 9999 SCT030 20/06 Q1023

Hora: 23:31 (22:31 UTC)

Pronóstico

El informe se hizo hace 5 horas y 31 minutos, a las 17:00 UTC
Pronóstico válido del 16 a las 18 UTC al 17 a las 03 UTC
Viento 11 kt del sur
Visibilidad 10 km o más
Nubes dispersas a una altura de 3000 ft

TAF: DAAY 161700Z 1618/1703 17011KT 9999 SCT030

Observaciones y pronósticos meteorológicos de más de 4000 aeropuertos (mensajes METAR y TAF).

Los puntos amarillos y rojos representan las estaciones disponibles.

Ponga el ratón en el punto deseado para ver el nombre de la estación.

Haga clic para ver las observaciones y los pronósticos meteorológicos.

Para cambiar el mapa : haga clic en los botones verdes con una cruz de color negro para hacer un zoom, en el botón verde con un guión para alejar o en las flechas verdes para mapas adyacentes.


METAR-TAF: